Terminal Aerodrome Forecast
Issued by NWS

Home | Current Version | Previous Version | Text Only | Print | Product List | Glossary On
Versions: 1 2 3 4 5 6 7 8 9 10 11 12 13 14 15 16 17 18 19 20 21 22 23 24 25 26 27 28 29 30 31 32 33 34 35 36 37 38 39 40 41 42
000
FTUS41 KRNK 251727
TAFLWB
TAF
KLWB 251727Z 2518/2618 33006KT P6SM BKN035
     FM260600 04005KT 3SM BR SKC
      TEMPO 2609/2612 1SM BR SCT001
     FM261400 27003KT P6SM SCT120=

USA.gov is the U.S. government's official web portal to all federal, state and local government web resources and services.